Time;durP1;ratioP1;P1;durP2;ratioP2;P2;SDS_P1;SDS_P2;PMS_P1;PMS_P2;Temp;Humidity;BMP_temperature;BMP_pressure;BME280_temperature;BME280_humidity;BME280_pressure;Samples;Min_cycle;Max_cycle;Signal;HPM_P1;HPM_P2
2022/12/13 00:01:29;;;;;;;76.68;25.77;;;;;;;-6.79;100.00;150867.25;5040516;28;20029;-75
2022/12/13 00:03:56;;;;;;;84.80;26.15;;;;;;;-6.83;100.00;150855.88;5027812;28;20037;-76
2022/12/13 00:06:23;;;;;;;75.07;25.52;;;;;;;-6.85;100.00;150852.06;5029043;28;20032;-76
2022/12/13 00:08:49;;;;;;;72.43;26.42;;;;;;;-6.90;100.00;150839.38;5051216;28;20089;-76
2022/12/13 00:11:15;;;;;;;70.28;25.85;;;;;;;-6.89;100.00;150841.94;5063359;28;20035;-75
2022/12/13 00:13:41;;;;;;;68.97;23.77;;;;;;;-6.96;100.00;150825.47;5039292;28;20171;-75
2022/12/13 00:16:11;;;;;;;65.45;24.40;;;;;;;-7.01;100.00;150812.78;5014684;28;20040;-76
2022/12/13 00:18:37;;;;;;;70.28;26.15;;;;;;;-7.10;100.00;150789.97;5047233;28;20046;-75
2022/12/13 00:21:05;;;;;;;64.75;23.45;;;;;;;-7.17;100.00;150772.28;5029886;28;20123;-77
2022/12/13 00:23:31;;;;;;;59.13;24.17;;;;;;;-7.21;100.00;150763.41;5038141;28;20040;-75
2022/12/13 00:26:05;;;;;;;70.55;26.27;;;;;;;-7.27;100.00;150748.19;5038864;28;20042;-77
2022/12/13 00:28:30;;;;;;;60.97;22.98;;;;;;;-7.33;100.00;150733.00;5049290;28;20094;-75
2022/12/13 00:31:00;;;;;;;73.18;25.48;;;;;;;-7.46;100.00;150702.63;5054741;28;20040;-75
2022/12/13 00:33:27;;;;;;;65.55;23.67;;;;;;;-7.46;100.00;150702.63;5031727;28;20076;-75
2022/12/13 00:35:54;;;;;;;67.28;24.40;;;;;;;-7.50;100.00;150691.22;5047752;28;20043;-76
2022/12/13 00:38:20;;;;;;;61.40;23.88;;;;;;;-7.56;100.00;150676.03;5071834;28;20082;-76
2022/12/13 00:40:45;;;;;;;67.60;24.80;;;;;;;-7.65;100.00;150654.50;5013340;28;20734;-76
2022/12/13 00:43:11;;;;;;;63.35;24.45;;;;;;;-7.72;100.00;150638.06;5066696;28;20425;-75
2022/12/13 00:45:37;;;;;;;65.15;22.38;;;;;;;-7.67;100.00;150649.44;5049686;28;20032;-76
2022/12/13 00:48:04;;;;;;;68.70;23.50;;;;;;;-7.66;100.00;150652.00;5037062;28;20432;-76
2022/12/13 00:50:30;;;;;;;68.72;24.77;;;;;;;-7.66;100.00;150653.22;5042589;28;20029;-76
2022/12/13 00:52:55;;;;;;;61.00;22.60;;;;;;;-7.66;100.00;150652.00;5051577;28;20036;-76
2022/12/13 00:55:21;;;;;;;68.57;22.38;;;;;;;-7.66;100.00;150653.22;5029665;28;20055;-75
2022/12/13 00:57:46;;;;;;;65.40;22.85;;;;;;;-7.66;100.00;150652.00;5018681;28;20036;-76
2022/12/13 01:00:12;;;;;;;56.78;21.95;;;;;;;-7.63;100.00;150660.84;5021632;28;20139;-77
2022/12/13 01:02:39;;;;;;;65.88;24.48;;;;;;;-7.58;100.00;150670.97;5055256;28;20032;-76
2022/12/13 01:05:04;;;;;;;68.82;23.83;;;;;;;-7.57;100.00;150673.47;5034125;28;20040;-75
2022/12/13 01:07:30;;;;;;;71.28;24.23;;;;;;;-7.56;100.00;150677.28;5050110;28;20525;-77
2022/12/13 01:09:57;;;;;;;64.65;24.75;;;;;;;-7.50;100.00;150692.47;5041177;28;20040;-76
2022/12/13 01:12:22;;;;;;;78.78;25.13;;;;;;;-7.45;100.00;150705.13;5032512;28;20048;-75
2022/12/13 01:14:48;;;;;;;69.63;24.55;;;;;;;-7.37;100.00;150722.88;5043375;28;20032;-75
2022/12/13 01:17:14;;;;;;;71.10;24.55;;;;;;;-7.43;100.00;150710.19;5035345;28;20253;-75
2022/12/13 01:19:40;;;;;;;68.32;25.60;;;;;;;-7.48;100.00;150697.56;5032892;28;20106;-76
2022/12/13 01:22:06;;;;;;;72.78;24.17;;;;;;;-7.53;100.00;150683.66;5052637;28;20040;-78
2022/12/13 01:24:33;;;;;;;71.47;25.88;;;;;;;-7.47;100.00;150700.09;5035209;28;20036;-75
2022/12/13 01:26:59;;;;;;;76.30;25.67;;;;;;;-7.44;100.00;150707.69;5048945;28;20105;-76
2022/12/13 01:29:26;;;;;;;71.38;25.20;;;;;;;-7.45;100.00;150703.88;5031613;28;20040;-75
2022/12/13 01:31:52;;;;;;;67.75;25.50;;;;;;;-7.46;100.00;150702.63;5058225;28;20746;-76
2022/12/13 01:34:19;;;;;;;74.85;25.60;;;;;;;-7.47;100.00;150700.09;5059290;28;20047;-77
2022/12/13 01:36:47;;;;;;;72.72;26.10;;;;;;;-7.53;100.00;150684.91;5039495;28;20783;-76
2022/12/13 01:39:15;;;;;;;73.47;25.20;;;;;;;-7.55;100.00;150679.84;5041147;28;20048;-76
2022/12/13 01:41:46;;;;;;;64.57;25.27;;;;;;;-7.56;100.00;150677.28;5058542;28;20039;-76
2022/12/13 01:44:49;;;;;;;67.60;23.83;;;;;;;-7.49;100.00;150693.75;5038394;28;20028;-76
2022/12/13 01:47:21;;;;;;;73.28;24.55;;;;;;;-7.45;100.00;150703.88;5056440;28;20072;-77
2022/12/13 01:49:48;;;;;;;61.22;22.73;;;;;;;-7.37;100.00;150724.13;5068660;28;20467;-75
2022/12/13 01:52:15;;;;;;;76.82;26.80;;;;;;;-7.35;100.00;150727.94;5043618;28;20052;-76
2022/12/13 01:54:50;;;;;;;76.80;26.50;;;;;;;-7.36;100.00;150725.44;5048839;28;20679;-77
2022/12/13 01:57:19;;;;;;;73.75;25.80;;;;;;;-7.43;100.00;150708.94;5046139;28;20062;-76
2022/12/13 01:59:46;;;;;;;72.53;25.83;;;;;;;-7.51;100.00;150689.97;5033510;28;20074;-75
2022/12/13 02:02:13;;;;;;;73.20;25.92;;;;;;;-7.66;100.00;150653.22;5024682;28;20055;-75
2022/12/13 02:04:48;;;;;;;83.40;28.05;;;;;;;-7.74;100.00;150633.00;5047946;28;20103;-76
2022/12/13 02:07:17;;;;;;;72.40;26.92;;;;;;;-7.90;100.00;150592.47;5049029;28;20036;-76
2022/12/13 02:09:43;;;;;;;69.40;25.20;;;;;;;-7.93;100.00;150586.16;5052967;28;20027;-76
2022/12/13 02:12:10;;;;;;;63.58;25.90;;;;;;;-7.93;100.00;150586.16;5020694;28;20082;-76
2022/12/13 02:14:39;;;;;;;72.35;25.75;;;;;;;-7.96;100.00;150577.31;5040451;28;20680;-76
2022/12/13 02:17:47;;;;;;;71.38;25.35;;;;;;;-7.94;100.00;150583.63;5053399;28;20477;-75
2022/12/13 02:20:31;;;;;;;66.85;23.95;;;;;;;-7.87;100.00;150601.34;5025286;28;20047;-76
2022/12/13 02:23:19;;;;;;;69.03;24.77;;;;;;;-7.86;100.00;150602.59;5040536;28;20033;-77
2022/12/13 02:25:57;;;;;;;75.20;25.38;;;;;;;-7.85;100.00;150606.41;5035576;28;20067;-77
2022/12/13 02:28:32;;;;;;;75.20;26.20;;;;;;;-7.90;100.00;150592.47;5051748;28;20044;-76
2022/12/13 02:31:26;;;;;;;78.53;27.05;;;;;;;-8.02;100.00;150564.63;5032080;28;20027;-76
2022/12/13 02:34:04;;;;;;;70.95;25.63;;;;;;;-8.08;100.00;150548.16;5048187;28;20071;-76
2022/12/13 02:36:54;;;;;;;78.88;27.00;;;;;;;-8.19;100.00;150521.63;5059019;28;20043;-76
2022/12/13 02:39:24;;;;;;;74.95;26.73;;;;;;;-8.23;100.00;150511.47;5041154;28;20044;-75
2022/12/13 02:42:00;;;;;;;68.93;25.55;;;;;;;-8.22;100.00;150514.00;5040497;28;20020;-76
2022/12/13 02:44:42;;;;;;;70.85;24.77;;;;;;;-8.13;100.00;150536.78;5052591;28;20041;-76
2022/12/13 02:47:15;;;;;;;69.18;26.63;;;;;;;-8.14;100.00;150533.00;5034032;28;20127;-75
2022/12/13 02:49:46;;;;;;;76.07;26.27;;;;;;;-8.09;100.00;150546.91;5056443;28;20036;-76
2022/12/13 02:52:16;;;;;;;73.82;26.40;;;;;;;-8.08;100.00;150549.47;5033912;28;20024;-76
2022/12/13 02:54:41;;;;;;;80.90;26.92;;;;;;;-8.05;100.00;150555.78;5032734;28;20036;-76
2022/12/13 02:57:34;;;;;;;75.18;25.77;;;;;;;-7.98;100.00;150572.25;5016281;28;20606;-75
2022/12/13 03:00:08;;;;;;;67.25;24.58;;;;;;;-7.99;100.00;150570.94;5032318;28;20024;-76
2022/12/13 03:02:44;;;;;;;67.00;24.55;;;;;;;-8.02;100.00;150563.38;5031678;28;20044;-75
2022/12/13 03:08:28;;;;;;;68.47;24.85;;;;;;;-7.92;100.00;150588.69;5030776;28;20040;-76
2022/12/13 03:11:16;;;;;;;65.97;24.65;;;;;;;-7.97;100.00;150576.00;5063045;28;20111;-75
2022/12/13 03:13:54;;;;;;;62.70;24.33;;;;;;;-7.96;100.00;150577.31;5020090;28;20113;-76
2022/12/13 03:16:29;;;;;;;70.82;26.13;;;;;;;-8.05;100.00;150555.78;5041727;28;20040;-76
2022/12/13 03:19:01;;;;;;;68.90;25.25;;;;;;;-8.05;100.00;150555.78;5042078;28;20063;-75
2022/12/13 03:21:28;;;;;;;66.63;24.87;;;;;;;-8.04;100.00;150559.56;5072794;28;20141;-76
2022/12/13 03:23:53;;;;;;;65.28;24.58;;;;;;;-7.98;100.00;150573.50;5055825;28;20070;-75
2022/12/13 03:26:25;;;;;;;66.50;24.25;;;;;;;-7.91;100.00;150591.22;5033278;28;20494;-77
2022/12/13 03:28:52;;;;;;;72.73;25.63;;;;;;;-7.92;100.00;150587.41;5041749;28;20032;-75
2022/12/13 03:31:18;;;;;;;63.97;23.38;;;;;;;-7.88;100.00;150597.53;5042110;28;20479;-76
2022/12/13 03:33:43;;;;;;;71.40;25.90;;;;;;;-7.86;100.00;150603.84;5045408;28;20040;-75
2022/12/13 03:36:10;;;;;;;67.75;26.08;;;;;;;-7.85;100.00;150605.16;5043593;28;20152;-76
2022/12/13 03:38:37;;;;;;;77.15;26.38;;;;;;;-7.83;100.00;150610.22;5076651;28;20119;-77
2022/12/13 03:41:07;;;;;;;70.15;24.52;;;;;;;-7.83;100.00;150610.22;5078781;28;20750;-76
2022/12/13 03:43:32;;;;;;;73.97;25.48;;;;;;;-7.80;100.00;150616.53;5026627;28;20047;-76
2022/12/13 03:46:00;;;;;;;66.78;25.15;;;;;;;-7.86;100.00;150602.59;5062425;28;20043;-75
2022/12/13 03:48:25;;;;;;;64.57;24.60;;;;;;;-7.86;100.00;150602.59;5076500;28;20112;-75
2022/12/13 03:50:52;;;;;;;66.22;23.67;;;;;;;-7.81;100.00;150614.00;5078606;28;20116;-75
2022/12/13 03:53:19;;;;;;;60.13;23.35;;;;;;;-7.76;100.00;150627.94;5053907;28;20825;-75
2022/12/13 03:55:44;;;;;;;68.75;24.27;;;;;;;-7.66;100.00;150652.00;5041484;28;20037;-76
2022/12/13 03:58:10;;;;;;;74.95;25.67;;;;;;;-7.61;100.00;150663.34;5051653;28;20049;-76
2022/12/13 04:00:36;;;;;;;70.25;24.15;;;;;;;-7.59;100.00;150668.41;5042458;28;20533;-75
2022/12/13 04:03:02;;;;;;;70.57;25.48;;;;;;;-7.56;100.00;150676.03;5045367;28;20042;-76
2022/12/13 04:05:28;;;;;;;65.32;23.63;;;;;;;-7.45;100.00;150703.88;5018863;28;20822;-75
2022/12/13 04:07:54;;;;;;;69.00;24.13;;;;;;;-7.48;100.00;150697.56;5042930;28;20036;-76
2022/12/13 04:10:20;;;;;;;65.20;22.67;;;;;;;-7.54;100.00;150681.09;5025478;28;20059;-76
2022/12/13 04:15:29;;;;;;;61.22;21.60;;;;;;;-7.76;100.00;150627.94;5071575;28;20036;-75
2022/12/13 04:17:55;;;;;;;62.28;22.38;;;;;;;-7.85;100.00;150606.41;5035546;28;20040;-76
2022/12/13 04:20:21;;;;;;;61.17;21.80;;;;;;;-7.87;100.00;150601.34;5040907;28;20039;-76
2022/12/13 04:22:46;;;;;;;63.38;23.17;;;;;;;-7.83;100.00;150610.22;5035451;28;20123;-76
2022/12/13 04:25:12;;;;;;;69.35;23.58;;;;;;;-7.81;100.00;150615.28;5077550;28;20052;-75
2022/12/13 04:27:38;;;;;;;57.63;20.92;;;;;;;-7.83;100.00;150611.47;5019170;28;20043;-75
2022/12/13 04:30:05;;;;;;;64.15;22.08;;;;;;;-7.85;100.00;150606.41;5040487;28;20436;-76
2022/12/13 04:32:31;;;;;;;66.63;22.73;;;;;;;-7.79;100.00;150619.06;5063299;28;20091;-76
2022/12/13 04:34:57;;;;;;;58.08;20.40;;;;;;;-7.77;100.00;150624.13;5045275;28;20039;-76
2022/12/13 04:37:22;;;;;;;63.22;21.90;;;;;;;-7.80;100.00;150616.53;5053146;28;20040;-75
2022/12/13 04:39:48;;;;;;;61.03;22.00;;;;;;;-7.84;100.00;150608.91;5036951;28;20114;-76
2022/12/13 04:42:14;;;;;;;56.80;20.15;;;;;;;-7.85;100.00;150606.41;5038398;28;20036;-77
2022/12/13 04:44:39;;;;;;;58.28;20.48;;;;;;;-7.77;100.00;150624.13;5039864;28;20067;-75
2022/12/13 04:47:05;;;;;;;57.88;21.98;;;;;;;-7.65;100.00;150654.50;5058034;28;20119;-76
2022/12/13 04:49:31;;;;;;;68.03;23.83;;;;;;;-7.55;100.00;150678.53;5021725;28;20060;-75
2022/12/13 04:51:57;;;;;;;63.10;23.67;;;;;;;-7.46;100.00;150702.63;5041945;28;20059;-74
2022/12/13 04:54:23;;;;;;;60.63;22.77;;;;;;;-7.39;100.00;150717.81;5071640;28;20078;-75
2022/12/13 04:56:48;;;;;;;63.40;22.92;;;;;;;-7.32;100.00;150736.81;5035086;28;20131;-75
2022/12/13 04:59:15;;;;;;;60.38;22.42;;;;;;;-7.22;100.00;150760.84;5047752;28;20582;-76
2022/12/13 05:01:41;;;;;;;64.43;22.33;;;;;;;-7.19;100.00;150767.22;5061477;28;20036;-76
2022/12/13 05:04:06;;;;;;;68.07;24.33;;;;;;;-7.16;100.00;150776.03;5029482;28;20031;-76
2022/12/13 05:06:32;;;;;;;68.35;22.80;;;;;;;-7.09;100.00;150793.78;5043162;28;20071;-76
2022/12/13 05:09:00;;;;;;;62.67;22.52;;;;;;;-7.08;100.00;150796.34;5036287;28;20056;-75
2022/12/13 05:11:27;;;;;;;57.85;21.02;;;;;;;-7.02;100.00;150809.03;5049476;28;20098;-76
2022/12/13 05:13:52;;;;;;;60.22;21.75;;;;;;;-7.00;100.00;150814.09;5040363;28;20040;-76
2022/12/13 05:16:18;;;;;;;61.00;22.55;;;;;;;-6.97;100.00;150821.66;5035665;28;20048;-76
2022/12/13 05:18:43;;;;;;;58.65;21.10;;;;;;;-6.92;100.00;150835.56;5036149;28;20051;-75
2022/12/13 05:21:10;;;;;;;64.25;21.13;;;;;;;-6.89;100.00;150843.19;5024625;28;20155;-75
2022/12/13 05:23:36;;;;;;;64.20;22.80;;;;;;;-6.88;100.00;150844.44;5021421;28;20032;-76
2022/12/13 05:26:03;;;;;;;68.07;22.63;;;;;;;-6.83;100.00;150855.88;5053343;28;20114;-76
2022/12/13 05:28:29;;;;;;;60.33;22.20;;;;;;;-6.77;100.00;150871.06;5059831;28;20040;-76
2022/12/13 05:31:06;;;;;;;66.13;22.33;;;;;;;-6.76;100.00;150873.56;5057237;28;20034;-76
2022/12/13 05:33:32;;;;;;;65.50;21.40;;;;;;;-6.71;100.00;150887.50;5072637;28;20036;-75
2022/12/13 05:35:57;;;;;;;65.10;21.73;;;;;;;-6.68;100.00;150893.88;5045915;28;20134;-76
2022/12/13 05:38:23;;;;;;;59.08;21.50;;;;;;;-6.68;100.00;150895.13;5040863;28;20036;-76
2022/12/13 05:40:49;;;;;;;59.92;21.73;;;;;;;-6.61;100.00;150910.31;5040101;28;20024;-76
2022/12/13 05:43:14;;;;;;;68.57;22.27;;;;;;;-6.55;100.00;150926.81;5050928;28;20082;-76
2022/12/13 05:45:40;;;;;;;63.42;24.10;;;;;;;-6.49;100.00;150940.75;5034194;28;20050;-76
2022/12/13 05:48:09;;;;;;;66.35;24.25;;;;;;;-6.44;100.00;150952.13;5034136;28;20060;-76
2022/12/13 05:50:37;;;;;;;61.20;22.10;;;;;;;-6.42;100.00;150958.50;5060915;28;20028;-76
2022/12/13 05:53:04;;;;;;;65.60;22.50;;;;;;;-6.37;100.00;150969.88;5025835;28;20068;-75
2022/12/13 05:55:29;;;;;;;74.82;27.15;;;;;;;-6.37;100.00;150969.88;5029161;28;20059;-76
2022/12/13 05:57:56;;;;;;;69.00;26.35;;;;;;;-6.31;100.00;150985.09;5018734;28;20548;-76
2022/12/13 06:00:22;;;;;;;70.47;25.20;;;;;;;-6.28;100.00;150993.97;5023983;28;20436;-76
2022/12/13 06:02:48;;;;;;;68.40;24.05;;;;;;;-6.27;100.00;150996.53;5034070;28;20043;-76
2022/12/13 06:05:14;;;;;;;65.90;22.95;;;;;;;-6.29;100.00;150991.44;5031906;28;20044;-76
2022/12/13 06:07:39;;;;;;;63.03;23.13;;;;;;;-6.23;100.00;151004.09;5034901;28;20036;-75
2022/12/13 06:10:05;;;;;;;64.70;22.92;;;;;;;-6.20;100.00;151012.97;5055508;28;20051;-76
2022/12/13 06:12:34;;;;;;;63.78;22.60;;;;;;;-6.18;100.00;151016.78;5043998;28;20047;-76
2022/12/13 06:14:59;;;;;;;67.15;24.25;;;;;;;-6.20;100.00;151011.72;5051557;28;20089;-76
2022/12/13 06:17:28;;;;;;;63.78;23.33;;;;;;;-6.20;100.00;151012.97;5032873;28;20032;-75
2022/12/13 06:19:54;;;;;;;61.17;22.25;;;;;;;-6.22;100.00;151006.66;5049646;28;20032;-75
2022/12/13 06:22:19;;;;;;;62.75;23.15;;;;;;;-6.18;100.00;151018.03;5039132;28;20043;-75
2022/12/13 06:24:45;;;;;;;63.67;23.02;;;;;;;-6.19;100.00;151014.28;5034288;28;20051;-76
2022/12/13 06:27:11;;;;;;;72.38;23.05;;;;;;;-6.19;100.00;151015.53;5057551;28;20036;-75
2022/12/13 06:29:36;;;;;;;62.22;23.15;;;;;;;-6.15;100.00;151024.41;5021849;28;20047;-75
2022/12/13 06:32:02;;;;;;;62.22;22.33;;;;;;;-6.17;100.00;151020.59;5032659;28;20090;-76
2022/12/13 06:34:33;;;;;;;61.40;21.20;;;;;;;-6.14;100.00;151026.91;5046310;28;20043;-75
2022/12/13 06:37:01;;;;;;;59.92;21.35;;;;;;;-6.17;100.00;151019.34;5027857;28;20181;-76
2022/12/13 06:39:28;;;;;;;58.30;21.85;;;;;;;-6.17;100.00;151019.34;5050688;28;20091;-75
2022/12/13 06:41:54;;;;;;;65.13;23.90;;;;;;;-6.17;100.00;151019.34;5052077;28;20052;-76
2022/12/13 06:44:20;;;;;;;61.53;21.67;;;;;;;-6.17;100.00;151019.34;5069456;28;20036;-76
2022/12/13 06:46:45;;;;;;;62.05;21.60;;;;;;;-6.14;100.00;151026.91;5032631;28;20040;-76
2022/12/13 06:49:11;;;;;;;60.83;21.00;;;;;;;-6.13;100.00;151030.72;5045390;28;20547;-76
2022/12/13 06:51:37;;;;;;;57.80;21.83;;;;;;;-6.05;100.00;151049.72;5042340;28;20094;-76
2022/12/13 06:54:03;;;;;;;58.33;20.13;;;;;;;-6.03;100.00;151053.53;5035904;28;20075;-75
2022/12/13 06:56:29;;;;;;;58.67;23.30;;;;;;;-6.05;100.00;151049.72;5017971;28;20130;-76
2022/12/13 06:58:55;;;;;;;59.97;21.48;;;;;;;-6.01;100.00;151058.63;5054443;28;20025;-76
2022/12/13 07:01:21;;;;;;;65.53;22.52;;;;;;;-6.02;100.00;151057.34;5042575;28;20039;-75
2022/12/13 07:03:47;;;;;;;54.38;19.85;;;;;;;-6.04;100.00;151052.28;5046358;28;20039;-75
2022/12/13 07:06:17;;;;;;;57.50;21.25;;;;;;;-6.04;100.00;151051.03;5076030;28;20585;-75
2022/12/13 07:08:47;;;;;;;60.00;21.10;;;;;;;-6.02;100.00;151056.09;5060156;28;20036;-75
2022/12/13 07:11:15;;;;;;;55.83;20.60;;;;;;;-5.99;100.00;151063.69;5039381;28;20051;-76
2022/12/13 07:13:42;;;;;;;61.28;21.30;;;;;;;-5.98;100.00;151066.22;5076749;28;20182;-75
2022/12/13 07:16:07;;;;;;;54.63;19.20;;;;;;;-5.94;100.00;151077.56;5043383;28;20397;-76
2022/12/13 07:18:33;;;;;;;57.80;20.38;;;;;;;-5.93;100.00;151078.88;5054412;28;20033;-75
2022/12/13 07:20:59;;;;;;;55.85;20.08;;;;;;;-5.94;100.00;151076.31;5037079;28;20091;-75
2022/12/13 07:23:25;;;;;;;53.47;19.33;;;;;;;-5.96;100.00;151071.31;5071714;28;20048;-75
2022/12/13 07:25:54;;;;;;;51.90;20.95;;;;;;;-5.94;100.00;151077.56;5052537;28;20115;-75
2022/12/13 07:28:20;;;;;;;55.42;20.75;;;;;;;-5.94;100.00;151076.31;5040154;28;20041;-75
2022/12/13 07:30:46;;;;;;;53.03;20.70;;;;;;;-5.92;100.00;151082.63;5038607;28;20040;-75
2022/12/13 07:33:13;;;;;;;61.75;21.73;;;;;;;-5.92;100.00;151082.63;5053722;28;20135;-75
2022/12/13 07:35:38;;;;;;;58.95;21.02;;;;;;;-5.90;100.00;151087.72;5037099;28;20036;-76
2022/12/13 07:38:06;;;;;;;55.30;21.55;;;;;;;-5.90;100.00;151087.72;5055330;28;20044;-76
2022/12/13 07:40:33;;;;;;;58.53;21.20;;;;;;;-5.78;100.00;151115.59;5044414;28;20441;-76
2022/12/13 07:42:58;;;;;;;58.53;20.55;;;;;;;-5.83;100.00;151102.97;5021245;28;20135;-76
2022/12/13 07:45:24;;;;;;;54.28;20.95;;;;;;;-5.83;100.00;151102.97;5058749;28;20616;-76
2022/12/13 07:47:50;;;;;;;59.58;21.50;;;;;;;-5.83;100.00;151104.22;5058578;28;20037;-75
2022/12/13 07:50:16;;;;;;;53.97;22.33;;;;;;;-5.75;100.00;151124.47;5054367;28;20048;-75
2022/12/13 07:52:42;;;;;;;51.67;20.58;;;;;;;-5.77;100.00;151119.41;5022434;28;20040;-76
2022/12/13 07:55:07;;;;;;;50.65;20.05;;;;;;;-5.75;100.00;151124.47;5069333;28;20151;-76
2022/12/13 07:57:33;;;;;;;52.30;21.42;;;;;;;-5.73;100.00;151129.56;5047709;28;20040;-75
2022/12/13 07:59:59;;;;;;;56.90;20.20;;;;;;;-5.76;100.00;151120.72;5040971;28;20032;-75
2022/12/13 08:02:26;;;;;;;63.90;22.85;;;;;;;-5.73;100.00;151129.56;5038174;28;20037;-76
2022/12/13 08:04:52;;;;;;;53.78;21.88;;;;;;;-5.74;100.00;151127.03;5048904;28;20402;-76
2022/12/13 08:07:17;;;;;;;65.93;22.27;;;;;;;-5.69;100.00;151138.44;5032415;28;20033;-75
2022/12/13 08:09:43;;;;;;;54.47;20.80;;;;;;;-5.67;100.00;151144.78;5077146;28;20393;-75
2022/12/13 08:12:08;;;;;;;59.50;21.02;;;;;;;-5.61;100.00;151157.44;5051649;28;20097;-76
2022/12/13 08:14:34;;;;;;;59.40;23.38;;;;;;;-5.60;100.00;151160.00;5049400;28;20036;-76
2022/12/13 08:16:59;;;;;;;58.00;23.08;;;;;;;-5.55;100.00;151173.94;5070464;28;20036;-76
2022/12/13 08:19:25;;;;;;;55.80;21.42;;;;;;;-5.49;100.00;151189.16;5069951;28;20036;-75
2022/12/13 08:21:51;;;;;;;52.35;21.63;;;;;;;-5.51;100.00;151184.09;5042472;28;20039;-75
2022/12/13 08:24:18;;;;;;;54.13;20.23;;;;;;;-5.47;100.00;151194.22;5037143;28;20044;-75
2022/12/13 08:26:44;;;;;;;55.50;22.02;;;;;;;-5.44;100.00;151199.28;5039176;28;20028;-75
2022/12/13 08:29:11;;;;;;;54.95;21.77;;;;;;;-5.41;100.00;151208.19;5059168;28;20036;-75
2022/12/13 08:31:37;;;;;;;57.47;21.52;;;;;;;-5.33;100.00;151228.50;5047950;28;20032;-76
2022/12/13 08:34:02;;;;;;;55.22;21.75;;;;;;;-5.23;100.00;151252.59;5058171;28;20119;-75
2022/12/13 08:36:28;;;;;;;48.97;19.70;;;;;;;-5.26;100.00;151244.97;5025726;28;20131;-74
2022/12/13 08:38:55;;;;;;;58.38;21.27;;;;;;;-5.29;100.00;151238.63;5060254;28;20025;-76
2022/12/13 08:41:21;;;;;;;51.47;19.65;;;;;;;-5.25;100.00;151246.28;5053670;28;20043;-76
2022/12/13 08:43:47;;;;;;;56.35;21.40;;;;;;;-5.32;100.00;151231.00;5058039;28;20036;-75
2022/12/13 08:46:13;;;;;;;60.70;21.60;;;;;;;-5.36;100.00;151220.88;5050419;28;20062;-75
2022/12/13 08:48:39;;;;;;;51.72;19.95;;;;;;;-5.39;100.00;151213.25;5054048;28;20607;-76
2022/12/13 08:51:07;;;;;;;50.97;21.67;;;;;;;-5.43;100.00;151203.09;5040519;28;20499;-75
2022/12/13 08:53:33;;;;;;;55.83;20.88;;;;;;;-5.40;100.00;151210.75;5027582;28;20115;-76
2022/12/13 08:56:04;;;;;;;54.40;21.25;;;;;;;-5.37;100.00;151217.06;5019917;28;20052;-76
2022/12/13 08:58:30;;;;;;;57.03;20.10;;;;;;;-5.31;100.00;151233.56;5078069;28;20556;-75
2022/12/13 09:00:56;;;;;;;54.45;21.10;;;;;;;-5.25;100.00;151246.28;5044086;28;20044;-75
2022/12/13 09:03:22;;;;;;;56.88;23.20;;;;;;;-5.33;100.00;151227.19;5060858;28;20084;-75
2022/12/13 09:05:48;;;;;;;83.13;33.17;;;;;;;-5.31;100.00;151232.31;5051134;28;20056;-75
2022/12/13 09:08:14;;;;;;;61.05;23.65;;;;;;;-5.26;100.00;151244.97;5049784;28;20047;-76
2022/12/13 09:10:40;;;;;;;57.80;22.00;;;;;;;-5.21;100.00;151257.66;5073399;28;20385;-76
2022/12/13 09:13:06;;;;;;;50.63;20.95;;;;;;;-5.15;100.00;151271.63;5017770;28;20071;-75
2022/12/13 09:15:31;;;;;;;69.03;24.40;;;;;;;-5.11;100.00;151283.00;5063000;28;20307;-76
2022/12/13 09:17:57;;;;;;;56.78;22.70;;;;;;;-5.14;100.00;151274.13;5064472;28;20103;-76
2022/12/13 09:20:23;;;;;;;53.22;19.83;;;;;;;-5.11;100.00;151283.00;5077620;28;20040;-76
2022/12/13 09:22:49;;;;;;;59.83;22.70;;;;;;;-5.03;100.00;151300.78;5035117;28;20100;-75
2022/12/13 09:25:15;;;;;;;55.20;19.92;;;;;;;-4.97;100.00;151317.28;5033278;28;20174;-75
2022/12/13 09:27:41;;;;;;;61.58;23.83;;;;;;;-4.99;100.00;151312.22;5072766;28;20416;-75
2022/12/13 09:30:11;;;;;;;57.47;22.75;;;;;;;-4.93;100.00;151327.44;5061193;28;20100;-76
2022/12/13 09:32:40;;;;;;;56.55;22.52;;;;;;;-4.84;100.00;151349.03;5027983;28;20039;-76
2022/12/13 09:35:07;;;;;;;60.38;22.80;;;;;;;-4.70;100.00;151383.25;5035613;28;20722;-75
2022/12/13 09:37:33;;;;;;;55.88;22.63;;;;;;;-4.72;100.00;151378.19;5053368;28;20036;-75
2022/12/13 09:39:59;;;;;;;55.08;22.50;;;;;;;-4.73;100.00;151375.63;5062012;28;20032;-76
2022/12/13 09:42:27;;;;;;;58.47;22.50;;;;;;;-4.60;100.00;151408.63;5066814;28;20934;-76
2022/12/13 09:44:57;;;;;;;52.28;21.67;;;;;;;-4.61;100.00;151406.13;5043557;28;20039;-76
2022/12/13 09:47:39;;;;;;;62.60;23.63;;;;;;;-4.53;100.00;151425.16;5052440;28;20036;-76
2022/12/13 09:50:08;;;;;;;58.72;22.05;;;;;;;-4.34;100.00;151472.09;5049944;28;20074;-75
2022/12/13 09:52:43;;;;;;;59.65;22.60;;;;;;;-4.28;100.00;151486.06;5008270;28;20066;-76
2022/12/13 09:55:19;;;;;;;55.53;23.58;;;;;;;-4.14;100.00;151522.88;5055446;28;20511;-76
2022/12/13 09:57:47;;;;;;;56.25;23.52;;;;;;;-4.07;100.00;151538.13;5044922;28;20029;-76
2022/12/13 10:00:15;;;;;;;53.42;22.20;;;;;;;-4.01;100.00;151554.63;5072222;28;20040;-75
2022/12/13 10:02:44;;;;;;;53.53;22.00;;;;;;;-3.96;100.00;151566.03;5039075;28;20044;-75
2022/12/13 10:05:10;;;;;;;58.60;24.02;;;;;;;-3.77;100.00;151613.03;5039509;28;20040;-75
2022/12/13 10:07:39;;;;;;;48.45;21.05;;;;;;;-3.75;100.00;151619.41;5059342;28;20064;-76
2022/12/13 10:10:05;;;;;;;54.28;21.67;;;;;;;-3.69;100.00;151633.38;5053356;28;20089;-76
2022/12/13 10:12:33;;;;;;;53.10;22.42;;;;;;;-3.59;100.00;151658.75;5055073;28;20036;-76
2022/12/13 10:15:01;;;;;;;49.63;21.10;;;;;;;-3.50;100.00;151679.06;5026358;28;20040;-76
2022/12/13 10:17:33;;;;;;;52.95;23.30;;;;;;;-3.40;100.00;151705.75;5066230;28;20036;-75
2022/12/13 10:19:59;;;;;;;55.20;22.48;;;;;;;-3.29;100.00;151732.44;5042023;28;20040;-76
2022/12/13 10:22:25;;;;;;;50.03;22.60;;;;;;;-3.17;100.00;151761.66;5056627;28;20139;-76
2022/12/13 10:25:02;;;;;;;55.90;23.92;;;;;;;-3.11;100.00;151776.88;5050435;28;20036;-76
2022/12/13 10:27:47;;;;;;;48.97;22.08;;;;;;;-3.07;100.00;151787.09;5027721;28;20143;-75
2022/12/13 10:30:19;;;;;;;50.05;21.73;;;;;;;-3.04;100.00;151793.41;5074187;28;20041;-75
2022/12/13 10:32:58;;;;;;;54.08;22.02;;;;;;;-3.05;100.00;151792.16;5069533;28;20044;-76
2022/12/13 10:35:29;;;;;;;53.08;23.35;;;;;;;-3.02;100.00;151798.50;5041161;28;20040;-76
2022/12/13 10:37:58;;;;;;;51.83;23.52;;;;;;;-2.95;100.00;151817.56;5041310;28;20128;-75
2022/12/13 10:40:33;;;;;;;51.50;22.15;;;;;;;-2.94;100.00;151820.13;5035613;28;20033;-76
2022/12/13 10:43:16;;;;;;;49.65;22.40;;;;;;;-2.92;100.00;151823.88;5050546;28;20682;-75
2022/12/13 10:45:59;;;;;;;47.40;23.17;;;;;;;-2.87;100.00;151836.59;5043062;28;20040;-75
2022/12/13 10:48:36;;;;;;;;;;;;;;;-2.81;100.00;151851.84;5054439;28;20032;-75
2022/12/13 10:51:05;;;;;;;45.95;20.85;;;;;;;-2.85;100.00;151841.69;5049663;28;19916;-76
2022/12/13 10:53:38;;;;;;;47.08;21.70;;;;;;;-2.80;100.00;151854.41;5055067;28;20040;-75
2022/12/13 10:56:04;;;;;;;48.60;22.33;;;;;;;-2.78;100.00;151858.22;5017104;28;20374;-75
2022/12/13 10:58:42;;;;;;;46.65;23.77;;;;;;;-2.81;100.00;151851.84;5043133;28;20032;-75
2022/12/13 11:01:08;;;;;;;43.90;22.30;;;;;;;-2.76;100.00;151863.31;5056967;28;20032;-75
2022/12/13 11:03:34;;;;;;;52.03;22.38;;;;;;;-2.80;100.00;151854.41;5023596;28;20043;-75
2022/12/13 11:06:13;;;;;;;56.10;23.55;;;;;;;-2.72;100.00;151873.47;5079175;28;20622;-75
2022/12/13 11:08:38;;;;;;;50.25;21.65;;;;;;;-2.65;100.00;151891.28;5036422;28;20489;-76
2022/12/13 11:11:06;;;;;;;47.13;22.45;;;;;;;-2.61;100.00;151901.44;5058975;28;20040;-76
2022/12/13 11:13:40;;;;;;;48.50;22.63;;;;;;;-2.63;100.00;151895.09;5043315;28;20064;-75